createdAt,value
2022-09-10T00:01:39.960Z,75.20
2022-09-10T00:04:14.889Z,75.30
2022-09-10T00:06:44.298Z,75.40
2022-09-10T00:09:14.026Z,75.10
2022-09-10T00:11:43.118Z,74.90
2022-09-10T00:14:15.594Z,74.90
2022-09-10T00:16:44.008Z,74.80
2022-09-10T00:19:14.941Z,74.80
2022-09-10T00:21:44.360Z,75.00
2022-09-10T00:24:12.432Z,75.10
2022-09-10T00:26:41.995Z,71.30
2022-09-10T00:29:17.554Z,68.90
2022-09-10T00:31:46.195Z,68.70
2022-09-10T00:34:18.017Z,68.60
2022-09-10T00:36:46.898Z,68.60
2022-09-10T00:39:17.039Z,68.60
2022-09-10T00:41:47.971Z,68.80
2022-09-10T00:44:56.808Z,68.80
2022-09-10T00:47:29.951Z,69.00
2022-09-10T00:50:06.089Z,69.00
2022-09-10T00:52:39.376Z,69.00
2022-09-10T00:55:12.782Z,68.80
2022-09-10T00:57:42.489Z,69.00
2022-09-10T01:00:14.301Z,69.00
2022-09-10T01:02:43.318Z,69.00
2022-09-10T01:05:14.140Z,69.00
2022-09-10T01:07:42.928Z,69.40
2022-09-10T01:10:15.627Z,69.60
2022-09-10T01:13:15.118Z,69.40
2022-09-10T01:15:53.458Z,69.30
2022-09-10T01:18:33.496Z,69.00
2022-09-10T01:21:24.941Z,69.00
2022-09-10T01:24:30.138Z,68.90
2022-09-10T01:27:32.266Z,69.10
2022-09-10T01:30:07.337Z,69.10
2022-09-10T01:32:52.110Z,68.90
2022-09-10T01:35:27.957Z,69.10
2022-09-10T01:37:59.828Z,69.10
2022-09-10T01:40:31.027Z,69.00
2022-09-10T01:43:05.895Z,69.60
2022-09-10T01:45:47.300Z,69.30
2022-09-10T01:48:30.107Z,69.90
2022-09-10T01:51:09.093Z,70.20
2022-09-10T01:54:00.313Z,70.20
2022-09-10T01:56:39.368Z,70.30
2022-09-10T01:59:15.956Z,70.10
2022-09-10T02:01:51.599Z,70.20
2022-09-10T02:04:22.688Z,70.50
2022-09-10T02:06:52.649Z,70.70
2022-09-10T02:09:21.243Z,70.70
2022-09-10T02:11:51.581Z,70.50
2022-09-10T02:14:38.446Z,70.50
2022-09-10T02:17:33.684Z,70.30
2022-09-10T02:20:04.104Z,70.10
2022-09-10T02:22:36.366Z,70.00
2022-09-10T02:25:09.928Z,70.00
2022-09-10T02:27:40.393Z,69.90
2022-09-10T02:30:10.159Z,70.10
2022-09-10T02:32:40.953Z,70.10
2022-09-10T02:35:09.985Z,70.00
2022-09-10T02:37:38.511Z,69.90
2022-09-10T02:40:07.968Z,69.90
2022-09-10T02:42:36.369Z,69.80
2022-09-10T02:45:05.066Z,69.90
2022-09-10T02:47:33.271Z,70.00
2022-09-10T02:50:03.230Z,69.90
2022-09-10T02:52:31.741Z,69.90
2022-09-10T02:55:00.158Z,69.80
2022-09-10T02:57:28.969Z,70.00
2022-09-10T02:59:57.362Z,70.10
2022-09-10T03:02:25.784Z,70.20
2022-09-10T03:04:56.516Z,70.10
2022-09-10T03:07:28.274Z,70.10
2022-09-10T03:09:56.457Z,70.20
2022-09-10T03:12:24.756Z,70.40
2022-09-10T03:14:53.447Z,70.40
2022-09-10T03:17:24.111Z,70.50
2022-09-10T03:19:52.520Z,70.70
2022-09-10T03:22:22.911Z,70.60
2022-09-10T03:24:52.571Z,70.50
2022-09-10T03:27:20.913Z,70.60
2022-09-10T03:29:49.245Z,70.70
2022-09-10T03:32:17.467Z,70.60
2022-09-10T03:34:45.634Z,70.50
2022-09-10T03:37:14.208Z,70.50
2022-09-10T03:39:43.513Z,70.60
2022-09-10T03:42:14.224Z,70.80
2022-09-10T03:44:42.554Z,70.90
2022-09-10T03:47:11.790Z,71.10
2022-09-10T03:49:40.695Z,71.10
2022-09-10T03:52:12.614Z,71.20
2022-09-10T03:54:42.708Z,71.30
2022-09-10T03:57:15.155Z,71.30
2022-09-10T03:59:43.484Z,71.40
2022-09-10T04:02:13.340Z,71.50
2022-09-10T04:04:42.903Z,71.60
2022-09-10T04:07:11.987Z,71.60
2022-09-10T04:09:40.572Z,71.60
2022-09-10T04:12:11.573Z,71.70
2022-09-10T04:14:43.611Z,71.80
2022-09-10T04:17:16.250Z,71.70
2022-09-10T04:19:45.438Z,71.80
2022-09-10T04:22:13.725Z,71.90
2022-09-10T04:24:44.669Z,72.00
2022-09-10T04:27:12.960Z,72.00
2022-09-10T04:29:43.134Z,72.10
2022-09-10T04:32:11.515Z,72.10
2022-09-10T04:34:39.675Z,72.10
2022-09-10T04:37:08.211Z,72.00
2022-09-10T04:39:36.612Z,72.10
2022-09-10T04:42:06.901Z,72.30
2022-09-10T04:44:35.320Z,72.40
2022-09-10T04:47:06.296Z,72.30
2022-09-10T04:49:35.147Z,77.00
2022-09-10T04:52:03.914Z,74.50
2022-09-10T04:54:33.638Z,73.00
2022-09-10T04:57:04.012Z,72.40
2022-09-10T04:59:32.424Z,72.20
2022-09-10T05:02:00.726Z,72.00
2022-09-10T05:04:30.368Z,71.90
2022-09-10T05:07:01.548Z,71.90
2022-09-10T05:09:31.726Z,71.90
2022-09-10T05:12:02.820Z,71.30
2022-09-10T05:14:31.519Z,71.30
2022-09-10T05:16:59.974Z,71.60
2022-09-10T05:19:33.380Z,71.60
2022-09-10T05:22:06.081Z,75.30
2022-09-10T05:24:35.354Z,72.80
2022-09-10T05:27:05.740Z,71.20
2022-09-10T05:29:36.130Z,70.60
2022-09-10T05:32:04.652Z,70.50
2022-09-10T05:34:34.372Z,70.60
2022-09-10T05:37:05.883Z,70.60
2022-09-10T05:39:34.945Z,70.60
2022-09-10T05:42:03.937Z,70.50
2022-09-10T05:44:32.492Z,70.30
2022-09-10T05:47:01.380Z,70.10
2022-09-10T05:49:30.505Z,70.10
2022-09-10T05:52:00.206Z,70.10
2022-09-10T05:54:28.414Z,70.00
2022-09-10T05:56:58.742Z,70.00
2022-09-10T05:59:27.002Z,69.80
2022-09-10T06:01:55.785Z,69.80
2022-09-10T06:04:25.548Z,69.90
2022-09-10T06:06:56.337Z,69.80
2022-09-10T06:09:28.688Z,70.40
2022-09-10T06:12:06.690Z,69.80
2022-09-10T06:14:36.170Z,70.10
2022-09-10T06:17:04.490Z,70.10
2022-09-10T06:19:33.947Z,74.20
2022-09-10T06:22:02.166Z,71.70
2022-09-10T06:24:35.443Z,70.10
2022-09-10T06:27:06.958Z,68.50
2022-09-10T06:29:36.865Z,68.00
2022-09-10T06:32:06.321Z,68.00
2022-09-10T06:34:37.174Z,68.00
2022-09-10T06:37:06.974Z,68.10
2022-09-10T06:39:39.593Z,67.90
2022-09-10T06:42:08.856Z,68.00
2022-09-10T06:45:07.141Z,68.30
2022-09-10T06:50:53.481Z,69.40
2022-09-10T06:53:25.509Z,68.90
2022-09-10T06:55:56.622Z,69.00
2022-09-10T06:58:25.666Z,69.40
2022-09-10T07:00:54.063Z,69.70
2022-09-10T07:03:24.216Z,68.30
2022-09-10T07:05:55.729Z,67.30
2022-09-10T07:08:27.866Z,67.00
2022-09-10T07:11:03.386Z,67.00
2022-09-10T07:13:32.480Z,67.10
2022-09-10T07:16:01.840Z,66.40
2022-09-10T07:18:32.023Z,66.60
2022-09-10T07:21:07.759Z,66.00
2022-09-10T07:23:36.081Z,64.50
2022-09-10T07:26:06.815Z,62.50
2022-09-10T07:28:40.507Z,60.70
2022-09-10T07:31:13.938Z,59.40
2022-09-10T07:33:43.205Z,57.90
2022-09-10T07:36:12.470Z,57.10
2022-09-10T07:38:43.138Z,57.10
2022-09-10T07:41:14.464Z,57.30
2022-09-10T07:43:49.536Z,58.10
2022-09-10T07:46:24.857Z,58.40
2022-09-10T07:48:59.872Z,58.00
2022-09-10T07:51:29.917Z,57.50
2022-09-10T07:54:04.398Z,57.50
2022-09-10T07:56:40.914Z,57.80
2022-09-10T07:59:11.595Z,58.10
2022-09-10T08:01:47.760Z,58.70
2022-09-10T08:04:17.991Z,58.20
2022-09-10T08:06:46.480Z,58.90
2022-09-10T08:09:15.712Z,58.10
2022-09-10T08:11:52.850Z,57.10
2022-09-10T08:14:24.183Z,55.20
2022-09-10T08:16:54.945Z,54.50
2022-09-10T08:19:25.010Z,54.20
2022-09-10T08:21:53.935Z,53.20
2022-09-10T08:24:28.900Z,52.50
2022-09-10T08:26:58.368Z,51.80
2022-09-10T08:29:28.757Z,52.30
2022-09-10T08:31:59.414Z,52.50
2022-09-10T08:34:31.518Z,52.20
2022-09-10T08:37:09.171Z,52.20
2022-09-10T08:39:38.546Z,52.60
2022-09-10T08:42:13.012Z,53.00
2022-09-10T08:44:49.097Z,52.20
2022-09-10T08:47:26.123Z,52.50
2022-09-10T08:49:59.088Z,52.10
2022-09-10T08:52:31.252Z,52.30
2022-09-10T08:55:03.730Z,51.50
2022-09-10T08:57:34.947Z,50.30
2022-09-10T09:00:03.758Z,49.50
2022-09-10T09:02:49.278Z,49.60
2022-09-10T09:05:21.722Z,50.60
2022-09-10T09:07:53.179Z,51.30
2022-09-10T09:10:27.911Z,51.80
2022-09-10T09:13:17.948Z,50.70
2022-09-10T09:15:51.794Z,50.60
2022-09-10T09:18:25.623Z,51.00
2022-09-10T09:20:56.209Z,50.50
2022-09-10T09:23:26.318Z,50.10
2022-09-10T09:25:57.522Z,50.10
2022-09-10T09:28:33.782Z,49.80
2022-09-10T09:31:09.184Z,50.70
2022-09-10T09:33:38.411Z,51.50
2022-09-10T09:36:14.535Z,51.90
2022-09-10T09:38:44.173Z,52.30
2022-09-10T09:41:17.816Z,52.80
2022-09-10T09:43:52.425Z,53.30
2022-09-10T09:46:22.999Z,53.20
2022-09-10T09:48:55.550Z,51.60
2022-09-10T09:51:27.059Z,50.50
2022-09-10T09:54:25.809Z,50.00
2022-09-10T09:56:47.628Z,49.90
2022-09-10T09:59:26.569Z,50.10
2022-09-10T10:01:55.229Z,50.40
2022-09-10T10:04:25.212Z,50.20
2022-09-10T10:06:57.414Z,50.00
2022-09-10T10:09:27.319Z,49.70
2022-09-10T10:11:56.470Z,49.20
2022-09-10T10:14:36.314Z,49.50
2022-09-10T10:17:05.663Z,49.40
2022-09-10T10:19:35.032Z,49.40
2022-09-10T10:22:22.258Z,49.80
2022-09-10T10:24:51.592Z,49.60
2022-09-10T10:27:22.094Z,49.30
2022-09-10T10:29:59.431Z,49.00
2022-09-10T10:32:35.080Z,48.40
2022-09-10T10:35:14.056Z,48.00
2022-09-10T10:37:45.604Z,47.70
2022-09-10T10:40:19.207Z,47.50
2022-09-10T10:42:52.385Z,47.70
2022-09-10T10:45:32.196Z,46.90
2022-09-10T10:48:04.475Z,46.00
2022-09-10T10:50:38.051Z,45.70
2022-09-10T10:53:16.544Z,46.20
2022-09-10T10:55:45.709Z,45.80
2022-09-10T10:58:39.126Z,46.40
2022-09-10T11:01:14.204Z,46.60
2022-09-10T11:03:48.891Z,46.60
2022-09-10T11:06:21.453Z,46.20
2022-09-10T11:08:55.324Z,48.20
2022-09-10T11:11:31.348Z,49.80
2022-09-10T11:14:06.446Z,49.60
2022-09-10T11:16:42.138Z,49.60
2022-09-10T11:19:17.293Z,49.80
2022-09-10T11:21:53.023Z,50.20
2022-09-10T11:24:26.999Z,49.40
2022-09-10T11:27:01.812Z,49.60
2022-09-10T11:29:41.047Z,50.30
2022-09-10T11:32:21.571Z,49.90
2022-09-10T11:34:59.055Z,49.70
2022-09-10T11:37:35.468Z,51.70
2022-09-10T11:40:14.271Z,52.90
2022-09-10T11:42:46.028Z,53.70
2022-09-10T11:45:22.133Z,53.70
2022-09-10T11:47:57.288Z,54.60
2022-09-10T11:50:34.730Z,55.20
2022-09-10T11:53:07.436Z,55.40
2022-09-10T11:55:55.250Z,55.70
2022-09-10T11:58:32.091Z,56.10
2022-09-10T12:01:13.419Z,56.80
2022-09-10T12:04:15.038Z,56.70
2022-09-10T12:06:55.018Z,56.90
2022-09-10T12:09:30.021Z,57.40
2022-09-10T12:12:07.181Z,57.00
2022-09-10T12:14:40.986Z,57.10
2022-09-10T12:17:15.920Z,57.10
2022-09-10T12:19:50.474Z,57.00
2022-09-10T12:22:22.913Z,56.80
2022-09-10T12:24:56.450Z,56.90
2022-09-10T12:27:46.225Z,57.10
2022-09-10T12:30:59.236Z,57.10
2022-09-10T12:33:59.445Z,57.30
2022-09-10T12:37:17.168Z,57.00
2022-09-10T12:39:47.099Z,57.30
2022-09-10T12:42:33.703Z,58.20
2022-09-10T12:45:02.086Z,57.90
2022-09-10T12:47:42.297Z,58.10
2022-09-10T12:50:37.253Z,58.40
2022-09-10T12:53:51.703Z,58.80
2022-09-10T12:56:40.759Z,59.30
2022-09-10T12:59:28.640Z,59.60
2022-09-10T13:01:57.921Z,59.90
2022-09-10T13:04:30.795Z,59.80
2022-09-10T13:07:01.918Z,60.00
2022-09-10T13:09:33.545Z,60.00
2022-09-10T13:12:08.353Z,60.00
2022-09-10T13:14:39.776Z,60.30
2022-09-10T13:17:28.156Z,60.10
2022-09-10T13:19:57.935Z,59.70
2022-09-10T13:22:53.458Z,60.70
2022-09-10T13:25:40.058Z,61.40
2022-09-10T13:28:44.117Z,62.00
2022-09-10T13:31:19.599Z,62.40
2022-09-10T13:34:17.681Z,62.70
2022-09-10T13:37:04.330Z,63.40
2022-09-10T13:40:11.627Z,62.90
2022-09-10T13:42:54.855Z,63.20
2022-09-10T13:45:27.193Z,63.60
2022-09-10T13:48:02.285Z,63.50
2022-09-10T13:50:37.959Z,63.90
2022-09-10T13:53:10.798Z,64.60
2022-09-10T13:55:39.733Z,64.20
2022-09-10T13:58:14.048Z,64.20
2022-09-10T14:00:51.344Z,64.10
2022-09-10T14:03:25.447Z,63.60
2022-09-10T14:05:57.665Z,63.50
2022-09-10T14:08:31.515Z,63.90
2022-09-10T14:11:03.799Z,64.60
2022-09-10T14:13:37.023Z,65.30
2022-09-10T14:16:09.344Z,66.00
2022-09-10T14:18:45.137Z,66.50
2022-09-10T14:21:15.120Z,67.00
2022-09-10T14:23:47.871Z,66.80
2022-09-10T14:26:23.615Z,65.90
2022-09-10T14:28:58.926Z,66.00
2022-09-10T14:31:36.118Z,65.90
2022-09-10T14:34:31.567Z,66.10
2022-09-10T14:37:03.019Z,65.60
2022-09-10T14:39:31.502Z,65.30
2022-09-10T14:42:11.041Z,65.60
2022-09-10T14:44:42.814Z,65.50
2022-09-10T14:47:16.276Z,65.90
2022-09-10T14:49:47.247Z,66.40
2022-09-10T14:52:15.811Z,65.50
2022-09-10T14:54:44.023Z,65.20
2022-09-10T14:57:15.362Z,65.40
2022-09-10T14:59:46.319Z,65.40
2022-09-10T15:02:17.968Z,65.60
2022-09-10T15:04:47.600Z,65.80
2022-09-10T15:07:17.938Z,65.60
2022-09-10T15:09:46.885Z,66.10
2022-09-10T15:12:21.323Z,66.20
2022-09-10T15:14:49.779Z,66.40
2022-09-10T15:17:20.906Z,66.70
2022-09-10T15:19:50.624Z,66.90
2022-09-10T15:22:24.842Z,66.80
2022-09-10T15:25:09.224Z,66.60
2022-09-10T15:27:38.140Z,66.90
2022-09-10T15:30:09.251Z,67.00
2022-09-10T15:32:37.621Z,67.40
2022-09-10T15:35:08.763Z,67.10
2022-09-10T15:37:37.754Z,66.70
2022-09-10T15:40:10.111Z,66.40
2022-09-10T15:42:38.403Z,65.90
2022-09-10T15:45:07.295Z,66.30
2022-09-10T15:47:36.284Z,66.40
2022-09-10T15:50:06.858Z,66.30
2022-09-10T15:52:35.118Z,66.00
2022-09-10T15:55:03.357Z,66.30
2022-09-10T15:57:33.787Z,66.20
2022-09-10T16:00:05.327Z,66.70
2022-09-10T16:02:33.976Z,66.90
2022-09-10T16:05:02.227Z,67.60
2022-09-10T16:07:34.281Z,67.60
2022-09-10T16:10:02.594Z,67.70
2022-09-10T16:12:33.496Z,67.60
2022-09-10T16:15:04.491Z,67.50
2022-09-10T16:17:32.665Z,67.50
2022-09-10T16:20:01.019Z,67.60
2022-09-10T16:22:33.575Z,67.90
2022-09-10T16:25:01.768Z,68.10
2022-09-10T16:27:30.024Z,67.90
2022-09-10T16:30:00.357Z,67.80
2022-09-10T16:32:28.788Z,67.90
2022-09-10T16:34:56.979Z,68.00
2022-09-10T16:37:26.233Z,68.30
2022-09-10T16:39:56.830Z,67.90
2022-09-10T16:42:25.193Z,68.20
2022-09-10T16:44:53.364Z,68.40
2022-09-10T16:47:21.819Z,68.60
2022-09-10T16:49:50.122Z,69.30
2022-09-10T16:52:18.528Z,69.30
2022-09-10T16:54:47.367Z,69.00
2022-09-10T16:57:17.149Z,68.90
2022-09-10T16:59:45.485Z,68.80
2022-09-10T17:02:13.688Z,68.80
2022-09-10T17:04:41.973Z,68.50
2022-09-10T17:07:10.240Z,68.60
2022-09-10T17:09:38.565Z,68.60
2022-09-10T17:12:10.596Z,68.50
2022-09-10T17:14:40.561Z,68.50
2022-09-10T17:17:09.880Z,68.40
2022-09-10T17:19:38.291Z,68.40
2022-09-10T17:22:07.032Z,68.30
2022-09-10T17:24:35.249Z,68.30
2022-09-10T17:27:03.527Z,68.50
2022-09-10T17:29:32.986Z,68.60
2022-09-10T17:32:02.708Z,68.80
2022-09-10T17:34:30.876Z,68.90
2022-09-10T17:37:01.701Z,68.70
2022-09-10T17:39:30.713Z,68.80
2022-09-10T17:41:59.000Z,69.00
2022-09-10T17:44:27.502Z,69.00
2022-09-10T17:46:56.292Z,69.20
2022-09-10T17:49:25.844Z,69.20
2022-09-10T17:51:54.431Z,68.90
2022-09-10T17:54:23.537Z,69.20
2022-09-10T17:56:51.777Z,69.50
2022-09-10T17:59:21.257Z,69.70
2022-09-10T18:01:49.470Z,69.80
2022-09-10T18:04:18.922Z,69.90
2022-09-10T18:06:52.187Z,70.30
2022-09-10T18:09:22.119Z,70.20
2022-09-10T18:11:53.057Z,70.30
2022-09-10T18:14:23.908Z,70.60
2022-09-10T18:16:52.404Z,70.80
2022-09-10T18:19:20.652Z,70.70
2022-09-10T18:21:52.820Z,70.60
2022-09-10T18:24:24.171Z,70.80
2022-09-10T18:26:54.220Z,71.00
2022-09-10T18:29:23.804Z,70.90
2022-09-10T18:31:53.636Z,70.90
2022-09-10T18:34:26.970Z,71.00
2022-09-10T18:36:58.955Z,71.20
2022-09-10T18:39:28.851Z,71.60
2022-09-10T18:41:57.176Z,71.70
2022-09-10T18:44:27.561Z,72.10
2022-09-10T18:46:56.063Z,72.40
2022-09-10T18:49:25.528Z,72.20
2022-09-10T18:51:57.956Z,72.30
2022-09-10T18:54:28.741Z,72.60
2022-09-10T18:56:58.187Z,72.50
2022-09-10T18:59:26.932Z,72.60
2022-09-10T19:01:56.045Z,73.10
2022-09-10T19:04:26.796Z,73.40
2022-09-10T19:06:59.341Z,73.30
2022-09-10T19:09:29.049Z,73.20
2022-09-10T19:11:59.307Z,73.30
2022-09-10T19:14:29.460Z,73.40
2022-09-10T19:16:58.796Z,73.50
2022-09-10T19:19:28.669Z,74.10
2022-09-10T19:22:01.196Z,73.20
2022-09-10T19:27:21.095Z,73.30
2022-09-10T19:29:49.956Z,73.30
2022-09-10T19:32:19.923Z,73.30
2022-09-10T19:34:50.769Z,73.40
2022-09-10T19:37:20.963Z,73.60
2022-09-10T19:39:49.411Z,73.10
2022-09-10T19:42:17.930Z,73.50
2022-09-10T19:44:46.187Z,73.50
2022-09-10T19:47:14.421Z,73.70
2022-09-10T19:49:43.225Z,73.40
2022-09-10T19:52:11.858Z,73.60
2022-09-10T19:54:42.259Z,73.40
2022-09-10T19:57:12.724Z,73.40
2022-09-10T19:59:40.997Z,73.30
2022-09-10T20:02:10.621Z,73.20
2022-09-10T20:04:38.849Z,73.20
2022-09-10T20:07:07.335Z,72.60
2022-09-10T20:09:39.674Z,72.60
2022-09-10T20:12:10.838Z,72.60
2022-09-10T20:14:39.228Z,72.60
2022-09-10T20:17:07.524Z,72.90
2022-09-10T20:19:38.178Z,72.80
2022-09-10T20:22:06.445Z,72.50
2022-09-10T20:24:34.791Z,72.40
2022-09-10T20:27:03.097Z,72.50
2022-09-10T20:29:32.918Z,72.90
2022-09-10T20:32:01.269Z,73.30
2022-09-10T20:34:29.582Z,73.20
2022-09-10T20:36:57.764Z,73.80
2022-09-10T20:39:26.077Z,73.60
2022-09-10T20:41:54.701Z,73.80
2022-09-10T20:44:23.160Z,73.80
2022-09-10T20:46:52.866Z,74.20
2022-09-10T20:49:23.459Z,74.20
2022-09-10T20:51:54.119Z,74.40
2022-09-10T20:54:22.343Z,74.40
2022-09-10T20:56:50.595Z,74.20
2022-09-10T20:59:21.512Z,74.10
2022-09-10T21:01:53.023Z,74.00
2022-09-10T21:04:22.073Z,74.00
2022-09-10T21:06:50.341Z,74.20
2022-09-10T21:09:21.787Z,74.20
2022-09-10T21:11:50.849Z,74.30
2022-09-10T21:14:21.390Z,74.30
2022-09-10T21:16:49.575Z,74.50
2022-09-10T21:19:19.592Z,74.80
2022-09-10T21:21:49.947Z,75.10
2022-09-10T21:24:22.483Z,75.30
2022-09-10T21:26:51.179Z,75.30
2022-09-10T21:29:21.344Z,75.00
2022-09-10T21:31:50.814Z,75.00
2022-09-10T21:34:20.751Z,75.10
2022-09-10T21:36:48.955Z,75.20
2022-09-10T21:39:18.894Z,75.50
2022-09-10T21:41:48.646Z,75.60
2022-09-10T21:44:18.562Z,76.00
2022-09-10T21:46:48.613Z,76.10
2022-09-10T21:49:17.223Z,76.00
2022-09-10T21:51:46.872Z,75.90
2022-09-10T21:54:20.809Z,75.90
2022-09-10T21:56:49.480Z,76.10
2022-09-10T21:59:18.046Z,76.20
2022-09-10T22:01:47.530Z,76.20
2022-09-10T22:04:22.442Z,76.30
2022-09-10T22:06:54.492Z,76.60
2022-09-10T22:09:26.373Z,76.70
2022-09-10T22:11:59.235Z,76.50
2022-09-10T22:14:27.505Z,76.50
2022-09-10T22:16:55.963Z,76.80
2022-09-10T22:19:25.941Z,76.80
2022-09-10T22:21:56.914Z,76.70
2022-09-10T22:24:26.146Z,76.70
2022-09-10T22:26:57.056Z,76.70
2022-09-10T22:29:25.334Z,76.80
2022-09-10T22:31:55.781Z,76.90
2022-09-10T22:34:24.170Z,77.00
2022-09-10T22:36:52.409Z,77.10
2022-09-10T22:39:23.225Z,77.30
2022-09-10T22:41:52.426Z,77.30
2022-09-10T22:44:34.674Z,77.20
2022-09-10T22:47:18.628Z,77.20
2022-09-10T22:50:01.100Z,77.30
2022-09-10T22:55:17.825Z,76.80
2022-09-10T22:57:46.067Z,77.20
2022-09-10T23:00:15.498Z,77.30
2022-09-10T23:02:47.850Z,77.70
2022-09-10T23:05:16.303Z,78.10
2022-09-10T23:07:44.584Z,79.00
2022-09-10T23:10:21.313Z,78.60
2022-09-10T23:12:52.432Z,78.70
2022-09-10T23:15:20.791Z,79.20
2022-09-10T23:17:49.090Z,79.50
2022-09-10T23:20:18.049Z,79.70
2022-09-10T23:22:48.953Z,79.80
2022-09-10T23:25:19.565Z,80.00
2022-09-10T23:27:51.892Z,80.00
2022-09-10T23:30:20.353Z,79.90
2022-09-10T23:32:48.963Z,79.80
2022-09-10T23:35:17.323Z,79.40
2022-09-10T23:37:46.731Z,79.20
2022-09-10T23:40:15.542Z,78.80
2022-09-10T23:42:44.003Z,78.60
2022-09-10T23:45:14.026Z,78.50
2022-09-10T23:47:42.350Z,78.70
2022-09-10T23:50:10.878Z,78.70
2022-09-10T23:52:39.158Z,78.80
2022-09-10T23:55:09.961Z,78.70
2022-09-10T23:57:39.082Z,78.50
